Edna T. Gattle — WDD2528 — position and weather

sailwx.info

Track history (hours):
 
Tides and Currents Weather Stations Pressure Air Temp Water Temp Dewpoint Dewpoint Depression Visibility Wind Speed Wind Dir Waves Ship Positions

Edna T. Gattle

Owner: Terral RiverService, Inc., Lake Providence, LA. More information available from US FCC via Universal Licensing System and Coast Guard Vessel Documentation Center.

Last reported at 2017-Mar-24 02:24 UTC. Time now 2017-Mar-24 20:13 UTC.
Position N 29°46' W 091°41'.

Length 33 m; draft 2.8 m.

Type: Towing. MMSI: 367116420.

Date/timePositionNaut miles runAvg speedWind from/ knotsBaromVisibWave heightAir tempDewpointWater temp
2017-Mar-24 02:24N 29°46' W 091°41'12 4.3
2017-Mar-23 23:33N 29°51' W 091°54'5 4.6
2017-Mar-23 22:33N 29°50' W 091°59'5 4.6
2017-Mar-23 21:33N 29°48' W 092°04'5 4.5
2017-Mar-23 20:33N 29°47' W 092°09'1 1.4
2017-Mar-23 19:33N 29°48' W 092°08'2 1.7
2017-Mar-23 18:33N 29°50' W 092°08'0 0.0
2017-Mar-23 17:33N 29°50' W 092°08'0 0.0
2017-Mar-23 16:33N 29°50' W 092°08'0 0.0
2017-Mar-23 15:33N 29°50' W 092°08'0 0.0
2017-Mar-23 14:33N 29°50' W 092°08'0 0.0
2017-Mar-23 13:34N 29°50' W 092°08'0 0.1
2017-Mar-23 12:24N 29°50' W 092°08'0 0.1
2017-Mar-23 11:33N 29°50' W 092°08'0 0.0
2017-Mar-23 10:33N 29°50' W 092°08'0 0.0
2017-Mar-23 09:33N 29°50' W 092°08'0 0.0
2017-Mar-23 08:33N 29°50' W 092°08'0 0.0
2017-Mar-23 07:33N 29°50' W 092°08'0 0.1
2017-Mar-23 06:33N 29°50' W 092°08'1 1.4
2017-Mar-23 05:33N 29°48' W 092°08'1 1.3
2017-Mar-23 04:33N 29°47' W 092°09'2 1.7
2017-Mar-23 03:33N 29°48' W 092°07'4 4.4
2017-Mar-23 02:33N 29°49' W 092°02'4 4.5
2017-Mar-23 01:33N 29°50' W 091°57'5 4.8
2017-Mar-23 00:33N 29°51' W 091°52'6 3.9
2017-Mar-22 23:08N 29°47' W 091°47'2 4.1
2017-Mar-22 22:33N 29°46' W 091°45'4 4.3
2017-Mar-22 21:33N 29°46' W 091°40'21 1.2
2017-Mar-22 03:27N 29°46' W 091°16'9 0.2
2017-Mar-20 02:06N 29°39' W 091°21'18 6.9
2017-Mar-19 23:27N 29°46' W 091°41'7 7.7
2017-Mar-19 22:32N 29°47' W 091°49'4 3.9
2017-Mar-19 21:30N 29°51' W 091°50'2 2.1
2017-Mar-19 20:32N 29°51' W 091°52'1 1.4
2017-Mar-19 19:31N 29°51' W 091°54'8 3.8
2017-Mar-19 17:29N 29°46' W 091°47'23 1.7
2017-Mar-19 04:06N 29°39' W 091°22'  
Track history (hours):
 
Tides and Currents Weather Stations Pressure Air Temp Water Temp Dewpoint Dewpoint Depression Visibility Wind Speed Wind Dir Waves Ship Positions

Edna T. Gattle

Owner: Terral RiverService, Inc., Lake Providence, LA. More information available from US FCC via Universal Licensing System and Coast Guard Vessel Documentation Center.

Last reported at 2017-Mar-24 02:24 UTC. Time now 2017-Mar-24 20:13 UTC.
Position N 29°46' W 091°41'.

Length 33 m; draft 2.8 m.

Type: Towing. MMSI: 367116420.

Date/timePositionNaut miles runAvg speedWind from/ knotsBaromVisibWave heightAir tempDewpointWater temp
2017-Mar-24 02:24N 29°46' W 091°41'12 4.3
2017-Mar-23 23:33N 29°51' W 091°54'5 4.6
2017-Mar-23 22:33N 29°50' W 091°59'5 4.6
2017-Mar-23 21:33N 29°48' W 092°04'5 4.5
2017-Mar-23 20:33N 29°47' W 092°09'1 1.4
2017-Mar-23 19:33N 29°48' W 092°08'2 1.7
2017-Mar-23 18:33N 29°50' W 092°08'0 0.0
2017-Mar-23 17:33N 29°50' W 092°08'0 0.0
2017-Mar-23 16:33N 29°50' W 092°08'0 0.0
2017-Mar-23 15:33N 29°50' W 092°08'0 0.0
2017-Mar-23 14:33N 29°50' W 092°08'0 0.0
2017-Mar-23 13:34N 29°50' W 092°08'0 0.1
2017-Mar-23 12:24N 29°50' W 092°08'0 0.1
2017-Mar-23 11:33N 29°50' W 092°08'0 0.0
2017-Mar-23 10:33N 29°50' W 092°08'0 0.0
2017-Mar-23 09:33N 29°50' W 092°08'0 0.0
2017-Mar-23 08:33N 29°50' W 092°08'0 0.0
2017-Mar-23 07:33N 29°50' W 092°08'0 0.1
2017-Mar-23 06:33N 29°50' W 092°08'1 1.4
2017-Mar-23 05:33N 29°48' W 092°08'1 1.3
2017-Mar-23 04:33N 29°47' W 092°09'2 1.7
2017-Mar-23 03:33N 29°48' W 092°07'4 4.4
2017-Mar-23 02:33N 29°49' W 092°02'4 4.5
2017-Mar-23 01:33N 29°50' W 091°57'5 4.8
2017-Mar-23 00:33N 29°51' W 091°52'6 3.9
2017-Mar-22 23:08N 29°47' W 091°47'2 4.1
2017-Mar-22 22:33N 29°46' W 091°45'4 4.3
2017-Mar-22 21:33N 29°46' W 091°40'21 1.2
2017-Mar-22 03:27N 29°46' W 091°16'9 0.2
2017-Mar-20 02:06N 29°39' W 091°21'18 6.9
2017-Mar-19 23:27N 29°46' W 091°41'7 7.7
2017-Mar-19 22:32N 29°47' W 091°49'4 3.9
2017-Mar-19 21:30N 29°51' W 091°50'2 2.1
2017-Mar-19 20:32N 29°51' W 091°52'1 1.4
2017-Mar-19 19:31N 29°51' W 091°54'8 3.8
2017-Mar-19 17:29N 29°46' W 091°47'23 1.7
2017-Mar-19 04:06N 29°39' W 091°22'  

Dump ship's entire track history